createdAt,value
2017-07-24T00:00:06.780Z,12.00
2017-07-24T00:02:37.924Z,10.40
2017-07-24T00:05:07.771Z,11.23
2017-07-24T00:07:38.480Z,9.23
2017-07-24T00:10:08.821Z,10.60
2017-07-24T00:12:38.633Z,9.98
2017-07-24T00:15:09.334Z,9.25
2017-07-24T00:17:39.654Z,9.63
2017-07-24T00:20:10.110Z,9.73
2017-07-24T00:22:40.106Z,10.30
2017-07-24T00:25:10.047Z,10.87
2017-07-24T00:27:40.642Z,10.73
2017-07-24T00:30:10.470Z,9.30
2017-07-24T00:32:40.350Z,9.90
2017-07-24T00:35:10.609Z,9.77
2017-07-24T00:37:40.602Z,10.32
2017-07-24T00:40:10.940Z,11.70
2017-07-24T00:42:40.810Z,10.00
2017-07-24T00:45:10.778Z,10.57
2017-07-24T00:47:40.941Z,11.43
2017-07-24T00:50:10.493Z,8.98
2017-07-24T00:52:40.013Z,10.40
2017-07-24T00:55:09.787Z,9.70
2017-07-24T00:57:39.306Z,10.50
2017-07-24T01:00:09.076Z,8.70
2017-07-24T01:02:38.627Z,9.20
2017-07-24T01:05:08.377Z,9.80
2017-07-24T01:07:38.986Z,9.15
2017-07-24T01:10:08.946Z,8.70
2017-07-24T01:12:38.594Z,9.68
2017-07-24T01:15:08.127Z,10.87
2017-07-24T01:17:38.169Z,9.20
2017-07-24T01:20:08.786Z,9.13
2017-07-24T01:22:39.730Z,8.25
2017-07-24T01:25:09.759Z,8.52
2017-07-24T01:27:40.182Z,9.82
2017-07-24T01:30:11.127Z,9.43
2017-07-24T01:32:41.024Z,10.50
2017-07-24T01:35:12.300Z,13.38
2017-07-24T01:37:42.188Z,11.25
2017-07-24T01:40:13.066Z,10.63
2017-07-24T01:42:42.833Z,9.37
2017-07-24T01:45:12.883Z,8.27
2017-07-24T01:47:42.935Z,9.52
2017-07-24T01:50:13.121Z,13.60
2017-07-24T01:52:42.646Z,9.30
2017-07-24T01:55:12.213Z,10.68
2017-07-24T01:57:41.735Z,10.98
2017-07-24T02:00:11.354Z,12.50
2017-07-24T02:02:40.889Z,9.00
2017-07-24T02:05:10.437Z,10.35
2017-07-24T02:07:40.643Z,11.75
2017-07-24T02:10:10.958Z,10.80
2017-07-24T02:12:40.922Z,14.65
2017-07-24T02:15:10.914Z,12.63
2017-07-24T02:17:40.909Z,9.77
2017-07-24T02:20:10.742Z,9.57
2017-07-24T02:22:40.938Z,9.63
2017-07-24T02:25:10.771Z,9.00
2017-07-24T02:27:41.339Z,9.27
2017-07-24T02:30:11.112Z,9.45
2017-07-24T02:32:41.095Z,10.40
2017-07-24T02:35:11.588Z,9.83
2017-07-24T02:37:42.030Z,9.52
2017-07-24T02:40:12.786Z,9.15
2017-07-24T02:42:42.788Z,9.40
2017-07-24T02:45:12.694Z,9.00
2017-07-24T02:47:43.002Z,10.33
2017-07-24T02:50:12.912Z,9.77
2017-07-24T02:52:44.260Z,11.32
2017-07-24T02:55:14.078Z,9.70
2017-07-24T02:57:43.894Z,9.70
2017-07-24T03:00:14.770Z,10.57
2017-07-24T03:02:44.805Z,12.35
2017-07-24T03:05:14.552Z,9.90
2017-07-24T03:07:44.496Z,10.60
2017-07-24T03:10:14.373Z,11.18
2017-07-24T03:12:44.158Z,10.55
2017-07-24T03:15:14.274Z,12.10
2017-07-24T03:17:45.844Z,9.75
2017-07-24T03:20:15.670Z,9.63
2017-07-24T03:22:45.458Z,9.30
2017-07-24T03:25:14.950Z,10.63
2017-07-24T03:27:44.502Z,10.40
2017-07-24T03:30:14.267Z,9.52
2017-07-24T03:32:43.909Z,11.18
2017-07-24T03:35:13.573Z,10.40
2017-07-24T03:37:43.431Z,10.73
2017-07-24T03:40:13.110Z,11.35
2017-07-24T03:42:42.741Z,12.88
2017-07-24T03:45:12.314Z,11.70
2017-07-24T03:47:41.823Z,11.05
2017-07-24T03:50:11.384Z,10.57
2017-07-24T03:52:41.189Z,10.50
2017-07-24T03:55:10.691Z,12.60
2017-07-24T03:57:41.615Z,12.32
2017-07-24T04:00:11.930Z,12.75
2017-07-24T04:02:41.907Z,10.00
2017-07-24T04:05:11.843Z,9.90
2017-07-24T04:07:42.080Z,8.43
2017-07-24T04:10:12.189Z,7.40
2017-07-24T04:12:42.406Z,8.38
2017-07-24T04:15:12.895Z,8.98
2017-07-24T04:17:43.449Z,7.67
2017-07-24T04:20:13.746Z,12.00
2017-07-24T04:22:44.823Z,11.53
2017-07-24T04:25:15.015Z,11.20
2017-07-24T04:27:46.987Z,10.32
2017-07-24T04:30:17.458Z,10.90
2017-07-24T04:32:46.990Z,11.10
2017-07-24T04:35:16.590Z,13.00
2017-07-24T04:37:46.526Z,11.35
2017-07-24T04:40:16.066Z,11.75
2017-07-24T04:42:45.739Z,12.88
2017-07-24T04:45:15.727Z,12.05
2017-07-24T04:47:45.322Z,11.00
2017-07-24T04:50:14.855Z,10.70
2017-07-24T04:52:44.438Z,10.63
2017-07-24T04:55:13.922Z,10.20
2017-07-24T04:57:43.669Z,8.73
2017-07-24T05:00:13.345Z,8.30
2017-07-24T05:02:42.936Z,9.60
2017-07-24T05:05:12.690Z,9.57
2017-07-24T05:07:42.208Z,10.80
2017-07-24T05:10:12.013Z,13.85
2017-07-24T05:12:41.638Z,12.48
2017-07-24T05:15:11.293Z,11.20
2017-07-24T05:17:41.970Z,11.93
2017-07-24T05:20:11.490Z,10.50
2017-07-24T05:22:41.146Z,13.10
2017-07-24T05:25:10.978Z,13.85
2017-07-24T05:27:40.538Z,11.20
2017-07-24T05:30:13.370Z,10.35
2017-07-24T05:32:43.122Z,10.77
2017-07-24T05:35:12.798Z,9.90
2017-07-24T05:37:42.688Z,11.57
2017-07-24T05:40:12.320Z,11.20
2017-07-24T05:42:41.921Z,11.20
2017-07-24T05:45:11.802Z,13.40
2017-07-24T05:47:41.358Z,10.82
2017-07-24T05:50:11.409Z,10.70
2017-07-24T05:52:41.129Z,11.45
2017-07-24T05:55:10.990Z,10.00
2017-07-24T05:57:40.848Z,11.12
2017-07-24T06:00:10.374Z,10.15
2017-07-24T06:02:39.918Z,9.03
2017-07-24T06:05:09.858Z,9.77
2017-07-24T06:07:39.391Z,10.85
2017-07-24T06:10:08.911Z,9.43
2017-07-24T06:12:38.575Z,9.05
2017-07-24T06:15:08.179Z,10.82
2017-07-24T06:17:38.061Z,14.00
2017-07-24T06:20:07.730Z,14.82
2017-07-24T06:22:37.342Z,11.45
2017-07-24T06:25:07.296Z,13.75
2017-07-24T06:27:36.799Z,13.82
2017-07-24T06:30:06.733Z,13.55
2017-07-24T06:32:36.339Z,10.93
2017-07-24T06:35:05.884Z,10.98
2017-07-24T06:37:35.858Z,11.07
2017-07-24T06:40:05.423Z,9.63
2017-07-24T06:42:34.963Z,7.90
2017-07-24T06:45:04.858Z,8.93
2017-07-24T06:47:34.366Z,7.50
2017-07-24T06:50:03.871Z,10.25
2017-07-24T06:52:33.430Z,7.30
2017-07-24T06:55:02.945Z,8.45
2017-07-24T06:57:32.434Z,6.50
2017-07-24T07:00:01.946Z,7.37
2017-07-24T07:02:32.086Z,7.25
2017-07-24T07:05:01.831Z,7.00
2017-07-24T07:07:31.464Z,6.90
2017-07-24T07:10:01.254Z,6.72
2017-07-24T07:12:30.865Z,6.50
2017-07-24T07:15:01.745Z,6.82
2017-07-24T07:17:31.791Z,7.28
2017-07-24T07:20:02.022Z,6.62
2017-07-24T07:22:32.406Z,9.05
2017-07-24T07:25:02.955Z,6.97
2017-07-24T07:27:32.619Z,6.65
2017-07-24T07:30:02.496Z,6.57
2017-07-24T07:32:32.119Z,7.10
2017-07-24T07:35:01.658Z,8.70
2017-07-24T07:37:31.308Z,10.20
2017-07-24T07:40:01.038Z,8.50
2017-07-24T07:42:30.782Z,13.25
2017-07-24T07:45:01.993Z,12.50
2017-07-24T07:47:32.823Z,13.13
2017-07-24T07:50:02.972Z,12.33
2017-07-24T07:52:32.774Z,8.20
2017-07-24T07:55:02.328Z,9.43
2017-07-24T07:57:31.918Z,13.43
2017-07-24T08:00:01.532Z,9.70
2017-07-24T08:02:31.103Z,7.10
2017-07-24T08:05:00.723Z,5.70
2017-07-24T08:07:30.253Z,5.05
2017-07-24T08:10:00.135Z,5.18
2017-07-24T08:12:29.633Z,5.30
2017-07-24T08:15:03.099Z,5.90
2017-07-24T08:17:32.596Z,4.93
2017-07-24T08:20:02.220Z,4.40
2017-07-24T08:22:32.606Z,5.65
2017-07-24T08:25:02.447Z,6.00
2017-07-24T08:27:31.982Z,4.62
2017-07-24T08:30:01.690Z,4.70
2017-07-24T08:32:31.508Z,7.65
2017-07-24T08:35:01.118Z,3.97
2017-07-24T08:37:32.268Z,3.60
2017-07-24T08:40:02.217Z,3.53
2017-07-24T08:42:31.805Z,5.65
2017-07-24T08:45:01.382Z,3.53
2017-07-24T08:47:31.334Z,3.57
2017-07-24T08:50:00.893Z,4.10
2017-07-24T08:52:30.417Z,3.10
2017-07-24T08:55:00.202Z,3.05
2017-07-24T08:57:29.742Z,4.17
2017-07-24T08:59:59.262Z,2.60
2017-07-24T09:02:29.087Z,3.15
2017-07-24T09:04:58.787Z,3.45
2017-07-24T09:07:29.285Z,3.33
2017-07-24T09:09:59.182Z,3.12
2017-07-24T09:12:28.855Z,2.95
2017-07-24T09:14:58.522Z,3.95
2017-07-24T09:17:29.147Z,3.12
2017-07-24T09:19:58.750Z,3.50
2017-07-24T09:22:28.320Z,7.73
2017-07-24T09:24:57.939Z,4.10
2017-07-24T09:27:27.526Z,4.20
2017-07-24T09:29:57.327Z,5.93
2017-07-24T09:32:27.115Z,3.80
2017-07-24T09:34:56.651Z,3.80
2017-07-24T09:37:26.447Z,4.43
2017-07-24T09:39:56.699Z,4.80
2017-07-24T09:42:26.263Z,3.90
2017-07-24T09:44:56.082Z,3.10
2017-07-24T09:47:25.590Z,2.00
2017-07-24T09:49:55.139Z,3.00
2017-07-24T09:52:25.429Z,3.40
2017-07-24T09:54:54.922Z,1.70
2017-07-24T09:57:24.522Z,2.80
2017-07-24T09:59:54.347Z,3.80
2017-07-24T10:02:23.858Z,3.30
2017-07-24T10:04:53.419Z,2.58
2017-07-24T10:07:23.550Z,3.67
2017-07-24T10:09:53.092Z,4.65
2017-07-24T10:12:22.828Z,5.00
2017-07-24T10:14:52.499Z,3.00
2017-07-24T10:17:22.058Z,3.30
2017-07-24T10:19:51.985Z,2.50
2017-07-24T10:22:21.542Z,2.53
2017-07-24T10:24:51.406Z,5.55
2017-07-24T10:27:21.090Z,4.77
2017-07-24T10:29:50.671Z,3.58
2017-07-24T10:32:20.491Z,2.60
2017-07-24T10:34:50.059Z,4.87
2017-07-24T10:37:19.596Z,3.20
2017-07-24T10:39:49.188Z,3.08
2017-07-24T10:42:18.771Z,2.40
2017-07-24T10:44:48.462Z,4.68
2017-07-24T10:47:18.430Z,3.10
2017-07-24T10:49:47.938Z,2.30
2017-07-24T10:52:17.531Z,2.33
2017-07-24T10:54:47.102Z,5.70
2017-07-24T10:57:17.040Z,2.05
2017-07-24T10:59:46.694Z,2.60
2017-07-24T11:02:16.698Z,2.90
2017-07-24T11:04:46.269Z,3.65
2017-07-24T11:07:16.031Z,3.05
2017-07-24T11:09:45.530Z,2.20
2017-07-24T11:12:15.138Z,4.25
2017-07-24T11:14:44.691Z,4.07
2017-07-24T11:17:14.683Z,2.90
2017-07-24T11:19:44.449Z,3.20
2017-07-24T11:22:14.119Z,2.67
2017-07-24T11:24:45.450Z,3.50
2017-07-24T11:27:14.983Z,5.40
2017-07-24T11:29:44.577Z,3.80
2017-07-24T11:32:14.366Z,3.40
2017-07-24T11:34:43.967Z,3.00
2017-07-24T11:37:13.476Z,2.85
2017-07-24T11:39:43.126Z,3.05
2017-07-24T11:42:12.811Z,3.40
2017-07-24T11:44:42.381Z,3.83
2017-07-24T11:47:12.342Z,2.47
2017-07-24T11:49:41.898Z,6.03
2017-07-24T11:52:11.482Z,4.20
2017-07-24T11:54:41.007Z,4.12
2017-07-24T11:57:10.987Z,2.63
2017-07-24T11:59:40.528Z,4.30
2017-07-24T12:02:10.342Z,4.53
2017-07-24T12:04:39.963Z,2.30
2017-07-24T12:07:27.579Z,3.47
2017-07-24T12:09:57.969Z,3.75
2017-07-24T12:12:28.247Z,3.63
2017-07-24T12:14:59.199Z,3.15
2017-07-24T12:17:29.231Z,4.40
2017-07-24T12:19:59.030Z,2.75
2017-07-24T12:22:29.254Z,3.60
2017-07-24T12:24:59.315Z,2.50
2017-07-24T12:27:29.287Z,3.62
2017-07-24T12:30:00.859Z,2.50
2017-07-24T12:32:30.581Z,1.70
2017-07-24T12:35:00.292Z,3.53
2017-07-24T12:37:29.900Z,4.78
2017-07-24T12:39:59.998Z,2.00
2017-07-24T12:42:30.291Z,2.87
2017-07-24T12:45:00.181Z,1.40
2017-07-24T12:47:29.732Z,1.92
2017-07-24T12:49:59.224Z,2.40
2017-07-24T12:52:28.980Z,1.47
2017-07-24T12:54:59.040Z,1.70
2017-07-24T12:57:28.855Z,1.30
2017-07-24T12:59:58.775Z,2.35
2017-07-24T13:02:28.346Z,2.80
2017-07-24T13:04:57.899Z,3.70
2017-07-24T13:07:27.650Z,2.70
2017-07-24T13:09:57.542Z,1.55
2017-07-24T13:12:27.623Z,1.52
2017-07-24T13:17:37.876Z,1.70
2017-07-24T13:20:07.925Z,2.17
2017-07-24T13:22:37.453Z,1.87
2017-07-24T13:25:07.263Z,2.35
2017-07-24T13:27:36.843Z,2.23
2017-07-24T13:30:06.596Z,3.00
2017-07-24T13:32:36.670Z,2.72
2017-07-24T13:35:06.742Z,2.00
2017-07-24T13:37:36.322Z,2.60
2017-07-24T13:40:06.215Z,3.10
2017-07-24T13:42:35.803Z,1.55
2017-07-24T13:45:05.379Z,2.67
2017-07-24T13:47:35.390Z,1.48
2017-07-24T13:50:05.187Z,1.95
2017-07-24T13:52:34.866Z,1.90
2017-07-24T13:55:05.760Z,1.87
2017-07-24T13:57:35.263Z,2.70
2017-07-24T14:00:04.409Z,2.10
2017-07-24T14:02:34.235Z,1.67
2017-07-24T14:05:04.129Z,2.05
2017-07-24T14:07:33.732Z,4.90
2017-07-24T14:10:04.139Z,3.80
2017-07-24T14:12:34.018Z,2.05
2017-07-24T14:15:03.514Z,2.43
2017-07-24T14:17:33.162Z,3.75
2017-07-24T14:20:02.713Z,1.60
2017-07-24T14:23:17.374Z,3.00
2017-07-24T14:25:48.546Z,3.33
2017-07-24T14:28:18.088Z,2.83
2017-07-24T14:30:49.851Z,3.95
2017-07-24T14:33:23.285Z,2.37
2017-07-24T14:35:53.946Z,2.53
2017-07-24T14:38:24.781Z,3.17
2017-07-24T14:40:54.798Z,1.73
2017-07-24T14:43:40.518Z,2.90
2017-07-24T14:46:21.724Z,6.65
2017-07-24T14:48:52.761Z,2.50
2017-07-24T14:51:22.350Z,3.60
2017-07-24T14:53:59.068Z,3.50
2017-07-24T14:56:41.085Z,2.08
2017-07-24T15:02:13.943Z,3.37
2017-07-24T15:04:44.538Z,3.47
2017-07-24T15:07:18.877Z,5.30
2017-07-24T15:09:48.853Z,3.30
2017-07-24T15:12:20.615Z,3.42
2017-07-24T15:14:51.457Z,3.50
2017-07-24T15:17:35.256Z,2.77
2017-07-24T15:20:11.396Z,1.50
2017-07-24T15:22:48.094Z,4.20
2017-07-24T15:25:24.419Z,2.30
2017-07-24T15:28:05.817Z,1.52
2017-07-24T15:30:37.693Z,2.40
2017-07-24T15:33:08.659Z,4.30
2017-07-24T15:35:52.759Z,3.33
2017-07-24T15:38:24.888Z,3.17
2017-07-24T15:43:58.424Z,6.32
2017-07-24T15:46:28.711Z,3.47
2017-07-24T15:48:58.623Z,3.10
2017-07-24T15:51:28.551Z,2.90
2017-07-24T15:54:01.484Z,5.00
2017-07-24T15:56:32.191Z,2.22
2017-07-24T15:59:02.616Z,2.30
2017-07-24T16:01:36.513Z,1.83
2017-07-24T16:04:06.912Z,2.30
2017-07-24T16:06:36.515Z,1.70
2017-07-24T16:09:06.332Z,2.20
2017-07-24T16:14:21.386Z,3.30
2017-07-24T16:16:52.267Z,2.70
2017-07-24T16:19:23.658Z,3.45
2017-07-24T16:21:53.784Z,2.42
2017-07-24T16:24:24.114Z,1.30
2017-07-24T16:26:53.784Z,1.80
2017-07-24T16:29:23.361Z,1.17
2017-07-24T16:31:55.233Z,2.00
2017-07-24T16:34:25.898Z,3.00
2017-07-24T16:37:00.819Z,1.50
2017-07-24T16:39:31.231Z,3.20
2017-07-24T16:42:04.981Z,1.30
2017-07-24T16:44:34.963Z,2.70
2017-07-24T16:47:06.808Z,3.80
2017-07-24T16:49:37.664Z,1.50
2017-07-24T16:52:07.466Z,1.92
2017-07-24T16:57:41.543Z,1.80
2017-07-24T17:00:12.354Z,3.90
2017-07-24T17:02:42.283Z,1.60
2017-07-24T17:05:14.040Z,3.22
2017-07-24T17:07:43.680Z,2.12
2017-07-24T17:10:13.383Z,1.80
2017-07-24T17:12:42.917Z,2.40
2017-07-24T17:15:20.254Z,2.20
2017-07-24T17:23:54.032Z,3.90
2017-07-24T17:26:24.461Z,2.55
2017-07-24T17:28:58.288Z,3.00
2017-07-24T17:31:29.987Z,2.30
2017-07-24T17:34:04.360Z,3.00
2017-07-24T17:36:35.388Z,2.60
2017-07-24T17:39:06.884Z,2.65
2017-07-24T17:41:37.167Z,2.40
2017-07-24T17:45:38.761Z,3.40
2017-07-24T17:48:13.994Z,1.80
2017-07-24T17:50:47.038Z,2.95
2017-07-24T17:53:17.537Z,1.95
2017-07-24T17:55:47.718Z,1.80
2017-07-24T17:58:18.505Z,2.10
2017-07-24T18:00:48.244Z,3.70
2017-07-24T18:03:19.056Z,3.70
2017-07-24T18:05:49.378Z,5.17
2017-07-24T18:08:20.779Z,3.90
2017-07-24T18:10:50.876Z,4.05
2017-07-24T18:13:21.551Z,2.10
2017-07-24T18:15:51.624Z,2.10
2017-07-24T18:18:21.235Z,2.20
2017-07-24T18:20:51.159Z,6.20
2017-07-24T18:23:20.856Z,3.05
2017-07-24T18:25:53.114Z,2.37
2017-07-24T18:28:22.791Z,3.05
2017-07-24T18:30:53.474Z,1.90
2017-07-24T18:33:24.629Z,2.50
2017-07-24T18:35:54.450Z,3.83
2017-07-24T18:38:24.126Z,2.55
2017-07-24T18:40:54.211Z,3.10
2017-07-24T18:43:25.284Z,2.22
2017-07-24T18:45:57.088Z,2.55
2017-07-24T18:48:26.945Z,4.80
2017-07-24T18:50:56.584Z,4.60
2017-07-24T18:53:26.341Z,2.62
2017-07-24T18:55:56.591Z,3.87
2017-07-24T18:58:26.179Z,4.97
2017-07-24T19:00:56.047Z,4.00
2017-07-24T19:03:26.559Z,5.40
2017-07-24T19:05:56.544Z,5.85
2017-07-24T19:08:29.210Z,8.05
2017-07-24T19:11:01.015Z,5.13
2017-07-24T19:13:32.722Z,2.62
2017-07-24T19:16:04.654Z,4.20
2017-07-24T19:18:35.219Z,3.30
2017-07-24T19:21:06.749Z,1.95
2017-07-24T19:23:36.590Z,4.60
2017-07-24T19:26:06.472Z,2.97
2017-07-24T19:28:36.578Z,3.50
2017-07-24T19:31:07.609Z,6.22
2017-07-24T19:33:39.003Z,9.75
2017-07-24T19:36:09.080Z,4.80
2017-07-24T19:38:39.377Z,3.50
2017-07-24T19:41:09.058Z,4.40
2017-07-24T19:43:39.035Z,2.45
2017-07-24T19:46:08.817Z,2.72
2017-07-24T19:48:40.624Z,2.80
2017-07-24T19:51:10.399Z,3.22
2017-07-24T19:53:40.029Z,3.30
2017-07-24T19:56:10.943Z,3.20
2017-07-24T19:58:45.411Z,4.10
2017-07-24T20:01:15.349Z,4.35
2017-07-24T20:03:47.659Z,4.57
2017-07-24T20:06:19.864Z,2.70
2017-07-24T20:08:49.949Z,5.32
2017-07-24T20:11:19.736Z,2.58
2017-07-24T20:13:49.756Z,2.33
2017-07-24T20:16:19.611Z,2.20
2017-07-24T20:18:50.222Z,3.35
2017-07-24T20:21:20.050Z,3.10
2017-07-24T20:23:49.784Z,4.50
2017-07-24T20:26:20.170Z,2.00
2017-07-24T20:28:49.768Z,4.60
2017-07-24T20:31:19.338Z,5.00
2017-07-24T20:33:53.353Z,2.40
2017-07-24T20:36:28.594Z,2.20
2017-07-24T20:39:05.836Z,3.30
2017-07-24T20:41:45.722Z,2.40
2017-07-24T20:44:17.601Z,2.87
2017-07-24T20:46:49.229Z,2.28
2017-07-24T20:49:19.327Z,2.00
2017-07-24T20:51:49.127Z,4.20
2017-07-24T20:54:20.975Z,2.67
2017-07-24T20:56:52.436Z,2.28
2017-07-24T20:59:22.973Z,3.50
2017-07-24T21:01:54.085Z,2.40
2017-07-24T21:04:23.744Z,2.00
2017-07-24T21:06:53.301Z,2.78
2017-07-24T21:09:23.043Z,2.70
2017-07-24T21:12:27.165Z,2.37
2017-07-24T21:14:57.084Z,4.03
2017-07-24T21:17:27.060Z,2.90
2017-07-24T21:19:56.647Z,3.27
2017-07-24T21:22:26.564Z,2.70
2017-07-24T21:24:56.474Z,4.90
2017-07-24T21:27:26.367Z,6.00
2017-07-24T21:29:56.333Z,3.20
2017-07-24T21:35:13.650Z,3.50
2017-07-24T21:37:43.790Z,1.77
2017-07-24T21:40:13.344Z,3.35
2017-07-24T21:42:42.891Z,2.70
2017-07-24T21:45:22.804Z,2.50
2017-07-24T21:47:53.011Z,3.30
2017-07-24T21:50:22.679Z,2.30
2017-07-24T21:52:53.558Z,3.47
2017-07-24T21:55:23.286Z,3.03
2017-07-24T21:57:52.854Z,4.70
2017-07-24T22:00:22.483Z,2.45
2017-07-24T22:02:52.438Z,2.30
2017-07-24T22:05:22.026Z,2.20
2017-07-24T22:07:51.598Z,4.47
2017-07-24T22:10:21.736Z,3.20
2017-07-24T22:14:21.447Z,4.47
2017-07-24T22:16:51.392Z,2.72
2017-07-24T22:19:21.498Z,2.05
2017-07-24T22:21:51.210Z,3.95
2017-07-24T22:24:22.570Z,2.00
2017-07-24T22:26:52.926Z,2.30
2017-07-24T22:29:22.644Z,3.30
2017-07-24T22:31:52.400Z,2.40
2017-07-24T22:34:22.597Z,1.50
2017-07-24T22:36:52.487Z,3.95
2017-07-24T22:39:22.373Z,3.50
2017-07-24T22:41:52.854Z,2.20
2017-07-24T22:44:23.402Z,4.30
2017-07-24T22:46:54.211Z,4.25
2017-07-24T22:49:23.887Z,3.70
2017-07-24T22:51:53.559Z,5.20
2017-07-24T22:54:23.414Z,3.67
2017-07-24T22:56:53.080Z,4.50
2017-07-24T22:59:23.260Z,3.65
2017-07-24T23:01:53.642Z,2.10
2017-07-24T23:04:23.505Z,2.30
2017-07-24T23:06:54.106Z,3.50
2017-07-24T23:09:24.507Z,3.33
2017-07-24T23:11:54.534Z,2.63
2017-07-24T23:14:24.608Z,2.20
2017-07-24T23:16:55.225Z,4.20
2017-07-24T23:19:25.414Z,1.48
2017-07-24T23:21:55.316Z,3.03
2017-07-24T23:24:25.379Z,3.20
2017-07-24T23:26:55.275Z,3.10
2017-07-24T23:29:25.059Z,2.45
2017-07-24T23:31:55.215Z,1.52
2017-07-24T23:34:25.875Z,1.00
2017-07-24T23:36:55.506Z,1.60
2017-07-24T23:39:26.490Z,1.40
2017-07-24T23:41:56.188Z,3.10
2017-07-24T23:44:25.952Z,1.80
2017-07-24T23:46:56.338Z,2.00
2017-07-24T23:49:26.480Z,1.27
2017-07-24T23:51:56.286Z,1.90
2017-07-24T23:54:26.480Z,1.30
2017-07-24T23:56:57.479Z,1.40
2017-07-24T23:59:28.198Z,3.30
